createdAt,value
2023-03-13T00:01:21.285Z,100434.22
2023-03-13T00:03:49.898Z,100431.00
2023-03-13T00:06:18.471Z,100436.16
2023-03-13T00:08:46.701Z,100440.66
2023-03-13T00:11:16.326Z,100437.28
2023-03-13T00:13:44.798Z,100445.31
2023-03-13T00:16:14.667Z,100448.00
2023-03-13T00:18:50.512Z,100433.13
2023-03-13T00:21:20.661Z,100437.50
2023-03-13T00:23:48.800Z,100426.06
2023-03-13T00:26:18.765Z,100430.53
2023-03-13T00:28:47.366Z,100427.22
2023-03-13T00:31:17.721Z,100420.06
2023-03-13T00:33:49.162Z,100419.19
2023-03-13T00:36:20.197Z,100421.09
2023-03-13T00:38:48.539Z,100417.66
2023-03-13T00:41:19.009Z,100420.44
2023-03-13T00:43:48.205Z,100415.94
2023-03-13T00:46:19.333Z,100409.09
2023-03-13T00:48:49.289Z,100414.34
2023-03-13T00:51:19.252Z,100419.81
2023-03-13T00:53:47.819Z,100422.47
2023-03-13T00:56:17.524Z,100412.69
2023-03-13T00:58:46.861Z,100402.44
2023-03-13T01:01:17.741Z,100400.72
2023-03-13T01:03:49.555Z,100399.66
2023-03-13T01:06:20.706Z,100392.56
2023-03-13T01:08:49.622Z,100377.59
2023-03-13T01:11:19.593Z,100364.22
2023-03-13T01:13:48.406Z,100375.88
2023-03-13T01:16:18.107Z,100374.34
2023-03-13T01:18:50.631Z,100381.53
2023-03-13T01:21:20.269Z,100384.09
2023-03-13T01:23:48.982Z,100386.75
2023-03-13T01:26:17.611Z,100383.34
2023-03-13T01:28:46.186Z,100371.88
2023-03-13T01:31:15.375Z,100366.66
2023-03-13T01:33:43.696Z,100369.22
2023-03-13T01:36:13.777Z,100367.50
2023-03-13T01:38:42.074Z,100357.84
2023-03-13T01:41:13.629Z,100358.69
2023-03-13T01:43:41.728Z,100360.63
2023-03-13T01:46:16.428Z,100368.53
2023-03-13T01:48:53.132Z,100360.63
2023-03-13T01:51:27.627Z,100350.03
2023-03-13T01:54:02.078Z,100356.22
2023-03-13T01:56:36.565Z,100357.94
2023-03-13T01:59:07.408Z,100356.34
2023-03-13T02:01:36.372Z,100356.22
2023-03-13T02:04:05.663Z,100343.94
2023-03-13T02:06:39.754Z,100344.78
2023-03-13T02:09:13.452Z,100347.56
2023-03-13T02:11:49.069Z,100344.88
2023-03-13T02:14:18.814Z,100352.06
2023-03-13T02:16:51.930Z,100364.47
2023-03-13T02:19:32.530Z,100345.16
2023-03-13T02:22:08.369Z,100354.84
2023-03-13T02:24:45.096Z,100351.38
2023-03-13T02:27:14.634Z,100356.66
2023-03-13T02:29:44.011Z,100353.09
2023-03-13T02:32:12.889Z,100363.72
2023-03-13T02:34:44.584Z,100361.03
2023-03-13T02:37:14.922Z,100360.19
2023-03-13T02:39:47.583Z,100355.69
2023-03-13T02:42:20.185Z,100365.53
2023-03-13T02:44:48.885Z,100357.59
2023-03-13T02:47:20.375Z,100356.66
2023-03-13T02:49:48.738Z,100353.09
2023-03-13T02:52:23.792Z,100359.31
2023-03-13T02:54:54.691Z,100356.72
2023-03-13T02:57:25.594Z,100357.59
2023-03-13T02:59:57.113Z,100352.22
2023-03-13T03:02:25.230Z,100360.25
2023-03-13T03:04:53.293Z,100368.28
2023-03-13T03:07:21.384Z,100367.41
2023-03-13T03:09:50.120Z,100371.91
2023-03-13T03:12:18.241Z,100372.78
2023-03-13T03:14:47.702Z,100372.88
2023-03-13T03:17:15.791Z,100380.91
2023-03-13T03:19:43.888Z,100373.84
2023-03-13T03:22:12.080Z,100367.63
2023-03-13T03:24:40.200Z,100370.31
2023-03-13T03:27:08.309Z,100366.03
2023-03-13T03:29:37.240Z,100378.13
2023-03-13T03:32:07.396Z,100368.59
2023-03-13T03:34:35.647Z,100368.03
2023-03-13T03:37:03.904Z,100359.59
2023-03-13T03:39:32.156Z,100365.06
2023-03-13T03:42:00.313Z,100361.22
2023-03-13T03:44:28.515Z,100360.34
2023-03-13T03:46:56.547Z,100356.41
2023-03-13T03:49:26.020Z,100365.81
2023-03-13T03:51:54.584Z,100361.53
2023-03-13T03:54:22.775Z,100361.63
2023-03-13T03:56:50.868Z,100377.69
2023-03-13T03:59:19.008Z,100375.97
2023-03-13T04:01:47.137Z,100379.41
2023-03-13T04:04:15.497Z,100385.72
2023-03-13T04:06:44.901Z,100397.34
2023-03-13T04:09:12.926Z,100393.72
2023-03-13T04:11:41.103Z,100404.59
2023-03-13T04:14:09.287Z,100397.53
2023-03-13T04:16:37.729Z,100401.16
2023-03-13T04:19:05.892Z,100404.81
2023-03-13T04:21:34.872Z,100407.47
2023-03-13T04:24:04.454Z,100411.13
2023-03-13T04:26:32.551Z,100408.44
2023-03-13T04:29:00.973Z,100417.41
2023-03-13T04:31:29.193Z,100418.94
2023-03-13T04:33:57.509Z,100424.47
2023-03-13T04:36:25.852Z,100421.16
2023-03-13T04:38:53.935Z,100412.28
2023-03-13T04:41:23.439Z,100417.63
2023-03-13T04:43:51.568Z,100415.03
2023-03-13T04:46:19.732Z,100420.31
2023-03-13T04:48:47.855Z,100422.97
2023-03-13T04:51:16.139Z,100414.16
2023-03-13T04:53:44.502Z,100414.16
2023-03-13T04:56:14.743Z,100404.53
2023-03-13T04:58:46.607Z,100417.78
2023-03-13T05:01:15.145Z,100433.84
2023-03-13T05:03:43.383Z,100440.03
2023-03-13T05:06:12.056Z,100433.84
2023-03-13T05:08:40.111Z,100441.97
2023-03-13T05:11:08.211Z,100442.06
2023-03-13T05:13:36.391Z,100451.78
2023-03-13T05:16:06.734Z,100452.66
2023-03-13T05:18:36.140Z,100451.78
2023-03-13T05:21:04.415Z,100450.94
2023-03-13T05:23:32.627Z,100435.97
2023-03-13T05:26:01.003Z,100435.75
2023-03-13T05:28:29.533Z,100433.47
2023-03-13T05:30:57.680Z,100448.38
2023-03-13T05:33:27.134Z,100457.16
2023-03-13T05:35:55.217Z,100451.03
2023-03-13T05:38:23.295Z,100453.72
2023-03-13T05:40:51.462Z,100453.72
2023-03-13T05:43:19.872Z,100449.31
2023-03-13T05:45:48.014Z,100446.66
2023-03-13T05:48:16.058Z,100445.09
2023-03-13T05:50:45.590Z,100446.81
2023-03-13T05:53:13.882Z,100450.28
2023-03-13T05:55:41.980Z,100448.47
2023-03-13T05:58:10.060Z,100446.75
2023-03-13T06:00:39.471Z,100444.16
2023-03-13T06:03:07.540Z,100448.53
2023-03-13T06:05:35.582Z,100445.97
2023-03-13T06:08:05.201Z,100447.78
2023-03-13T06:10:34.813Z,100446.81
2023-03-13T06:13:17.148Z,100446.81
2023-03-13T06:15:52.658Z,100442.28
2023-03-13T06:18:21.414Z,100439.75
2023-03-13T06:20:50.212Z,100444.09
2023-03-13T06:23:19.939Z,100448.53
2023-03-13T06:25:48.921Z,100448.53
2023-03-13T06:28:17.100Z,100444.94
2023-03-13T06:30:45.493Z,100444.16
2023-03-13T06:33:13.692Z,100447.69
2023-03-13T06:35:55.218Z,100438.91
2023-03-13T06:38:26.340Z,100435.28
2023-03-13T06:40:55.137Z,100445.78
2023-03-13T06:43:23.954Z,100447.63
2023-03-13T06:45:53.413Z,100448.53
2023-03-13T06:48:23.077Z,100458.31
2023-03-13T06:50:51.390Z,100462.69
2023-03-13T06:53:21.538Z,100452.97
2023-03-13T06:55:51.061Z,100455.53
2023-03-13T06:58:31.642Z,100448.47
2023-03-13T07:01:00.945Z,100450.09
2023-03-13T07:03:29.305Z,100443.97
2023-03-13T07:05:58.504Z,100446.66
2023-03-13T07:08:27.107Z,100445.78
2023-03-13T07:11:00.977Z,100450.19
2023-03-13T07:13:30.039Z,100454.56
2023-03-13T07:16:01.299Z,100446.81
2023-03-13T07:18:29.590Z,100451.78
2023-03-13T07:21:00.062Z,100447.41
2023-03-13T07:23:30.693Z,100430.78
2023-03-13T07:26:02.594Z,100436.91
2023-03-13T07:28:32.119Z,100435.97
2023-03-13T07:31:07.849Z,100439.50
2023-03-13T07:33:36.346Z,100436.81
2023-03-13T07:36:05.123Z,100431.38
2023-03-13T07:38:34.489Z,100439.38
2023-03-13T07:41:04.786Z,100433.09
2023-03-13T07:43:33.733Z,100426.03
2023-03-13T07:46:03.248Z,100422.38
2023-03-13T07:48:33.495Z,100419.72
2023-03-13T07:51:01.997Z,100414.38
2023-03-13T07:53:30.955Z,100413.50
2023-03-13T07:56:01.323Z,100412.56
2023-03-13T07:58:32.655Z,100415.31
2023-03-13T08:01:01.069Z,100407.09
2023-03-13T08:03:30.224Z,100403.69
2023-03-13T08:06:00.172Z,100403.69
2023-03-13T08:08:29.850Z,100400.03
2023-03-13T08:11:01.886Z,100388.50
2023-03-13T08:13:32.175Z,100388.50
2023-03-13T08:16:05.568Z,100382.28
2023-03-13T08:18:35.183Z,100387.63
2023-03-13T08:21:08.201Z,100391.16
2023-03-13T08:23:36.921Z,100382.28
2023-03-13T08:26:07.601Z,100379.50
2023-03-13T08:28:38.038Z,100375.03
2023-03-13T08:31:10.711Z,100370.63
2023-03-13T08:33:39.201Z,100369.88
2023-03-13T08:36:12.827Z,100371.50
2023-03-13T08:38:42.588Z,100368.81
2023-03-13T08:41:12.103Z,100368.81
2023-03-13T08:43:41.576Z,100359.94
2023-03-13T08:46:09.735Z,100373.97
2023-03-13T08:48:37.900Z,100361.47
2023-03-13T08:51:08.418Z,100362.41
2023-03-13T08:53:37.953Z,100352.50
2023-03-13T08:56:07.197Z,100349.81
2023-03-13T08:58:35.413Z,100352.41
2023-03-13T09:01:06.478Z,100344.38
2023-03-13T09:03:35.210Z,100350.56
2023-03-13T09:06:04.121Z,100347.16
2023-03-13T09:08:33.398Z,100338.16
2023-03-13T09:11:03.271Z,100352.19
2023-03-13T09:13:33.306Z,100332.72
2023-03-13T09:16:03.045Z,100339.88
2023-03-13T09:18:32.941Z,100344.06
2023-03-13T09:21:01.653Z,100335.06
2023-03-13T09:23:29.736Z,100334.13
2023-03-13T09:25:59.138Z,100331.44
2023-03-13T09:28:28.085Z,100328.69
2023-03-13T09:30:56.349Z,100326.09
2023-03-13T09:33:25.333Z,100313.50
2023-03-13T09:35:55.078Z,100318.97
2023-03-13T09:38:23.369Z,100311.97
2023-03-13T09:41:05.643Z,100318.63
2023-03-13T09:43:45.135Z,100320.34
2023-03-13T09:46:17.642Z,100307.94
2023-03-13T09:48:50.178Z,100302.38
2023-03-13T09:51:25.110Z,100307.56
2023-03-13T09:53:57.736Z,100310.22
2023-03-13T09:56:29.215Z,100312.22
2023-03-13T09:59:02.686Z,100298.97
2023-03-13T10:01:32.645Z,100300.50
2023-03-13T10:04:09.176Z,100301.25
2023-03-13T10:06:42.675Z,100283.25
2023-03-13T10:09:21.393Z,100276.94
2023-03-13T10:11:56.614Z,100287.25
2023-03-13T10:14:31.885Z,100272.91
2023-03-13T10:17:08.688Z,100278.78
2023-03-13T10:19:39.293Z,100274.22
2023-03-13T10:22:15.640Z,100271.84
2023-03-13T10:24:51.250Z,100278.00
2023-03-13T10:27:19.542Z,100260.75
2023-03-13T10:29:50.989Z,100272.88
2023-03-13T10:32:20.849Z,100265.38
2023-03-13T10:34:55.013Z,100258.75
2023-03-13T10:37:26.888Z,100266.44
2023-03-13T10:39:55.634Z,100267.84
2023-03-13T10:42:29.251Z,100256.91
2023-03-13T10:45:00.286Z,100243.44
2023-03-13T10:47:33.702Z,100252.75
2023-03-13T10:50:05.269Z,100240.75
2023-03-13T10:52:42.913Z,100235.19
2023-03-13T10:55:14.444Z,100239.22
2023-03-13T10:57:44.887Z,100227.34
2023-03-13T11:00:32.130Z,100234.09
2023-03-13T11:03:00.747Z,100228.31
2023-03-13T11:05:42.567Z,100218.22
2023-03-13T11:08:23.326Z,100216.22
2023-03-13T11:10:57.602Z,100213.06
2023-03-13T11:13:37.646Z,100201.91
2023-03-13T11:16:22.293Z,100197.28
2023-03-13T11:19:09.296Z,100195.88
2023-03-13T11:21:45.691Z,100204.97
2023-03-13T11:24:23.753Z,100199.34
2023-03-13T11:27:04.582Z,100200.50
2023-03-13T11:29:44.732Z,100193.84
2023-03-13T11:32:24.080Z,100173.88
2023-03-13T11:34:55.698Z,100188.28
2023-03-13T11:37:28.954Z,100160.03
2023-03-13T11:40:08.346Z,100159.47
2023-03-13T11:43:06.531Z,100150.19
2023-03-13T11:46:03.860Z,100149.38
2023-03-13T11:49:00.188Z,100153.56
2023-03-13T11:51:36.440Z,100134.41
2023-03-13T11:54:31.855Z,100150.88
2023-03-13T11:57:08.276Z,100147.66
2023-03-13T11:59:47.031Z,100141.16
2023-03-13T12:02:24.303Z,100131.69
2023-03-13T12:04:57.807Z,100127.63
2023-03-13T12:07:32.316Z,100124.72
2023-03-13T12:10:05.026Z,100112.63
2023-03-13T12:12:41.736Z,100097.50
2023-03-13T12:15:22.571Z,100107.63
2023-03-13T12:17:56.307Z,100097.38
2023-03-13T12:20:27.775Z,100087.00
2023-03-13T12:23:02.161Z,100082.97
2023-03-13T12:25:38.060Z,100088.81
2023-03-13T12:28:24.092Z,100081.09
2023-03-13T12:31:01.695Z,100083.41
2023-03-13T12:33:35.602Z,100082.06
2023-03-13T12:36:05.776Z,100091.34
2023-03-13T12:38:40.228Z,100066.88
2023-03-13T12:41:18.985Z,100073.19
2023-03-13T12:44:07.219Z,100068.03
2023-03-13T12:46:46.270Z,100054.97
2023-03-13T12:49:47.179Z,100039.78
2023-03-13T12:52:43.200Z,100020.56
2023-03-13T12:55:29.121Z,100028.84
2023-03-13T12:58:14.936Z,100015.13
2023-03-13T13:00:47.245Z,100004.84
2023-03-13T13:03:38.366Z,100006.72
2023-03-13T13:06:09.628Z,99995.56
2023-03-13T13:08:40.695Z,99995.88
2023-03-13T13:11:56.552Z,100000.47
2023-03-13T13:15:05.995Z,99996.84
2023-03-13T13:17:57.683Z,99993.75
2023-03-13T13:20:45.139Z,100010.19
2023-03-13T13:23:36.939Z,100002.72
2023-03-13T13:26:48.003Z,100008.69
2023-03-13T13:29:58.947Z,99998.47
2023-03-13T13:32:47.219Z,99990.84
2023-03-13T13:35:30.459Z,99976.13
2023-03-13T13:38:30.264Z,99979.81
2023-03-13T13:41:03.561Z,99962.47
2023-03-13T13:43:39.588Z,99955.66
2023-03-13T13:46:24.556Z,99957.34
2023-03-13T13:49:14.791Z,99949.97
2023-03-13T13:51:43.675Z,99952.41
2023-03-13T13:54:32.879Z,99946.03
2023-03-13T13:57:01.950Z,99938.94
2023-03-13T13:59:40.939Z,99930.72
2023-03-13T14:02:21.903Z,99923.34
2023-03-13T14:04:56.351Z,99923.06
2023-03-13T14:07:31.535Z,99917.81
2023-03-13T14:10:17.984Z,99922.19
2023-03-13T14:12:48.550Z,99932.28
2023-03-13T14:15:19.317Z,99929.56
2023-03-13T14:17:49.880Z,99939.34
2023-03-13T14:20:38.951Z,99942.91
2023-03-13T14:23:08.981Z,99929.56
2023-03-13T14:25:46.539Z,99933.81
2023-03-13T14:28:22.467Z,99937.09
2023-03-13T14:30:53.004Z,99929.03
2023-03-13T14:33:21.704Z,99923.63
2023-03-13T14:35:51.284Z,99930.72
2023-03-13T14:38:21.261Z,99927.03
2023-03-13T14:40:50.466Z,99930.28
2023-03-13T14:43:23.408Z,99941.81
2023-03-13T14:45:52.115Z,99933.84
2023-03-13T14:48:24.697Z,99942.66
2023-03-13T14:51:14.294Z,99924.50
2023-03-13T14:53:55.258Z,99925.19
2023-03-13T14:56:32.929Z,99920.38
2023-03-13T14:59:09.353Z,99915.84
2023-03-13T15:01:37.723Z,99907.47
2023-03-13T15:04:06.163Z,99910.31
2023-03-13T15:06:35.819Z,99911.16
2023-03-13T15:09:20.853Z,99907.63
2023-03-13T15:11:58.169Z,99907.47
2023-03-13T15:14:35.530Z,99900.38
2023-03-13T15:17:04.420Z,99895.00
2023-03-13T15:19:32.784Z,99891.59
2023-03-13T15:22:02.311Z,99883.22
2023-03-13T15:24:30.397Z,99883.38
2023-03-13T15:26:58.548Z,99873.44
2023-03-13T15:29:26.729Z,99866.63
2023-03-13T15:31:54.954Z,99868.91
2023-03-13T15:34:25.552Z,99872.75
2023-03-13T15:36:53.773Z,99873.72
2023-03-13T15:39:25.475Z,99874.69
2023-03-13T15:41:54.124Z,99864.22
2023-03-13T15:44:22.553Z,99858.41
2023-03-13T15:46:50.766Z,99865.50
2023-03-13T15:49:18.911Z,99855.00
2023-03-13T15:51:47.054Z,99857.69
2023-03-13T15:54:15.473Z,99847.06
2023-03-13T15:56:45.003Z,99847.22
2023-03-13T15:59:14.068Z,99841.28
2023-03-13T16:01:43.326Z,99854.16
2023-03-13T16:04:11.643Z,99853.31
2023-03-13T16:06:39.826Z,99856.16
2023-03-13T16:09:12.264Z,99848.34
2023-03-13T16:11:40.420Z,99849.34
2023-03-13T16:14:09.902Z,99847.63
2023-03-13T16:16:38.164Z,99838.84
2023-03-13T16:19:07.701Z,99828.66
2023-03-13T16:21:36.237Z,99835.88
2023-03-13T16:24:04.623Z,99846.78
2023-03-13T16:26:33.447Z,99846.88
2023-03-13T16:29:01.567Z,99838.94
2023-03-13T16:31:33.350Z,99837.41
2023-03-13T16:34:02.310Z,99840.25
2023-03-13T16:36:32.417Z,99835.97
2023-03-13T16:39:01.522Z,99838.81
2023-03-13T16:41:30.452Z,99834.56
2023-03-13T16:43:58.501Z,99845.47
2023-03-13T16:46:31.434Z,99851.25
2023-03-13T16:49:01.931Z,99843.19
2023-03-13T16:51:30.260Z,99843.31
2023-03-13T16:54:00.834Z,99811.00
2023-03-13T16:56:31.795Z,99840.22
2023-03-13T16:59:00.873Z,99836.78
2023-03-13T17:01:30.130Z,99847.69
2023-03-13T17:03:59.785Z,99848.84
2023-03-13T17:06:32.241Z,99845.00
2023-03-13T17:09:02.096Z,99858.19
2023-03-13T17:11:31.203Z,99852.94
2023-03-13T17:14:00.005Z,99848.69
2023-03-13T17:16:32.160Z,99851.50
2023-03-13T17:19:03.574Z,99852.66
2023-03-13T17:21:33.376Z,99855.59
2023-03-13T17:24:01.830Z,99859.41
2023-03-13T17:26:33.463Z,99854.03
2023-03-13T17:29:04.138Z,99854.19
2023-03-13T17:31:37.603Z,99857.16
2023-03-13T17:34:05.795Z,99850.06
2023-03-13T17:36:36.053Z,99857.41
2023-03-13T17:39:06.280Z,99862.06
2023-03-13T17:41:36.075Z,99853.16
2023-03-13T17:44:08.744Z,99857.97
2023-03-13T17:46:41.378Z,99861.66
2023-03-13T17:49:11.885Z,99864.50
2023-03-13T17:51:43.226Z,99866.44
2023-03-13T17:54:14.422Z,99854.81
2023-03-13T17:56:44.990Z,99848.03
2023-03-13T17:59:15.419Z,99858.78
2023-03-13T18:01:44.047Z,99855.38
2023-03-13T18:04:13.060Z,99851.97
2023-03-13T18:06:46.001Z,99840.91
2023-03-13T18:09:16.001Z,99847.72
2023-03-13T18:11:44.423Z,99847.00
2023-03-13T18:14:23.468Z,99843.47
2023-03-13T18:17:23.773Z,99837.53
2023-03-13T18:20:24.826Z,99822.47
2023-03-13T18:23:35.441Z,99821.63
2023-03-13T18:27:05.723Z,99834.38
2023-03-13T18:30:21.184Z,99836.22
2023-03-13T18:33:17.842Z,99832.81
2023-03-13T18:36:36.258Z,99826.72
2023-03-13T18:39:22.033Z,99829.66
2023-03-13T18:42:33.571Z,99827.81
2023-03-13T18:45:29.547Z,99820.88
2023-03-13T18:48:20.155Z,99808.72
2023-03-13T18:51:14.526Z,99808.56
2023-03-13T18:54:52.503Z,99799.81
2023-03-13T18:58:09.191Z,99802.75
2023-03-13T19:00:46.517Z,99794.91
2023-03-13T19:03:20.172Z,99803.84
2023-03-13T19:06:06.718Z,99801.16
2023-03-13T19:08:44.577Z,99789.81
2023-03-13T19:11:22.998Z,99781.63
2023-03-13T19:13:56.742Z,99787.25
2023-03-13T19:16:33.532Z,99789.50
2023-03-13T19:19:04.246Z,99787.53
2023-03-13T19:21:32.936Z,99779.59
2023-03-13T19:24:01.660Z,99769.00
2023-03-13T19:26:34.441Z,99760.22
2023-03-13T19:29:03.269Z,99774.50
2023-03-13T19:31:31.479Z,99769.38
2023-03-13T19:33:59.670Z,99776.44
2023-03-13T19:36:35.479Z,99766.41
2023-03-13T19:39:04.776Z,99763.44
2023-03-13T19:41:34.382Z,99765.41
2023-03-13T19:44:02.486Z,99762.72
2023-03-13T19:46:31.219Z,99756.59
2023-03-13T19:49:01.077Z,99763.72
2023-03-13T19:51:30.696Z,99759.44
2023-03-13T19:53:59.063Z,99763.97
2023-03-13T19:56:29.603Z,99765.78
2023-03-13T19:59:00.488Z,99757.88
2023-03-13T20:01:28.925Z,99758.16
2023-03-13T20:04:01.617Z,99761.69
2023-03-13T20:06:35.800Z,99769.88
2023-03-13T20:09:09.180Z,99769.88
2023-03-13T20:11:41.731Z,99771.84
2023-03-13T20:14:18.761Z,99766.75
2023-03-13T20:16:54.962Z,99760.50
2023-03-13T20:19:31.037Z,99763.19
2023-03-13T20:22:04.803Z,99770.41
2023-03-13T20:24:43.771Z,99763.47
2023-03-13T20:27:19.720Z,99747.88
2023-03-13T20:29:58.009Z,99750.19
2023-03-13T20:32:33.034Z,99744.91
2023-03-13T20:35:16.013Z,99743.22
2023-03-13T20:38:12.154Z,99756.78
2023-03-13T20:40:59.651Z,99747.03
2023-03-13T20:43:32.592Z,99734.13
2023-03-13T20:46:25.482Z,99725.97
2023-03-13T20:49:01.662Z,99712.63
2023-03-13T20:51:56.211Z,99719.13
2023-03-13T20:54:49.547Z,99698.06
2023-03-13T20:57:51.084Z,99695.38
2023-03-13T21:00:32.345Z,99680.25
2023-03-13T21:03:11.869Z,99679.50
2023-03-13T21:05:52.374Z,99684.03
2023-03-13T21:08:37.659Z,99677.81
2023-03-13T21:11:34.891Z,99671.72
2023-03-13T21:14:03.115Z,99660.56
2023-03-13T21:16:32.491Z,99645.56
2023-03-13T21:19:09.325Z,99642.63
2023-03-13T21:21:37.867Z,99647.13
2023-03-13T21:24:29.793Z,99637.34
2023-03-13T21:27:06.180Z,99647.38
2023-03-13T21:29:59.110Z,99632.25
2023-03-13T21:32:29.255Z,99623.50
2023-03-13T21:34:58.893Z,99617.41
2023-03-13T21:37:28.346Z,99616.44
2023-03-13T21:39:57.200Z,99608.53
2023-03-13T21:42:25.453Z,99611.31
2023-03-13T21:44:54.466Z,99609.38
2023-03-13T21:47:24.478Z,99615.59
2023-03-13T21:49:56.585Z,99615.72
2023-03-13T21:52:26.257Z,99611.31
2023-03-13T21:54:59.488Z,99617.66
2023-03-13T21:57:27.610Z,99597.47
2023-03-13T21:59:56.112Z,99606.22
2023-03-13T22:02:24.389Z,99601.97
2023-03-13T22:04:52.496Z,99596.88
2023-03-13T22:07:20.563Z,99592.38
2023-03-13T22:09:52.637Z,99592.47
2023-03-13T22:12:23.667Z,99589.94
2023-03-13T22:14:51.737Z,99581.03
2023-03-13T22:17:20.364Z,99570.84
2023-03-13T22:19:48.692Z,99576.78
2023-03-13T22:22:17.290Z,99572.56
2023-03-13T22:24:45.354Z,99570.00
2023-03-13T22:27:15.494Z,99563.91
2023-03-13T22:29:44.254Z,99562.91
2023-03-13T22:32:12.596Z,99565.72
2023-03-13T22:34:44.906Z,99555.97
2023-03-13T22:37:13.188Z,99553.56
2023-03-13T22:39:41.342Z,99551.75
2023-03-13T22:42:09.577Z,99548.22
2023-03-13T22:44:39.007Z,99533.25
2023-03-13T22:47:07.099Z,99523.50
2023-03-13T22:49:35.373Z,99529.72
2023-03-13T22:52:03.721Z,99524.44
2023-03-13T22:54:31.943Z,99533.47
2023-03-13T22:57:00.009Z,99531.78
2023-03-13T22:59:28.168Z,99538.25
2023-03-13T23:01:58.376Z,99528.38
2023-03-13T23:04:26.590Z,99523.28
2023-03-13T23:06:54.678Z,99519.59
2023-03-13T23:09:22.815Z,99516.22
2023-03-13T23:11:50.912Z,99510.94
2023-03-13T23:14:18.961Z,99516.31
2023-03-13T23:16:47.269Z,99518.44
2023-03-13T23:19:16.897Z,99505.16
2023-03-13T23:21:45.156Z,99491.88
2023-03-13T23:24:13.252Z,99495.41
2023-03-13T23:26:41.333Z,99503.47
2023-03-13T23:29:09.553Z,99498.25
2023-03-13T23:31:37.732Z,99493.72
2023-03-13T23:34:05.885Z,99488.50
2023-03-13T23:36:35.400Z,99480.69
2023-03-13T23:39:04.174Z,99482.53
2023-03-13T23:41:32.358Z,99487.03
2023-03-13T23:44:00.997Z,99475.47
2023-03-13T23:46:29.818Z,99485.34
2023-03-13T23:48:59.526Z,99475.75
2023-03-13T23:51:28.241Z,99479.41
2023-03-13T23:53:57.896Z,99475.88
2023-03-13T23:56:26.333Z,99479.41
2023-03-13T23:58:55.392Z,99476.84
